Main page
METAR-TAF:

METAR-TAF

Airports :

Valladolid Airport

Valladolid, Spain

latitude: 41-43N, longitude: 004-51W, elevation: 849 m

Current weather observation

The report was made 40 minutes ago, at 06:00 UTC
Wind 3 kt from the South/Southeast
Temperature 19°C
Humidity 56%
Pressure 1015 hPa
Visibility 10 km or more
no clouds below 1500 m and no cumulonimbus

METAR: LEVD 130600Z 16003KT CAVOK 19/10 Q1015

Time: 08:40 (06:40 UTC)

Forecast

The report was made 4 hours and 40 minutes ago, at 02:00 UTC
Forecast valid from 13 at 03 UTC to 14 at 03 UTC
Wind 5 kt from variable directions
Visibility 10 km or more
no clouds below 1500 m and no cumulonimbus
Probability 30% :
Temporary
from 13 at 10 UTC to 13 at 15 UTC
Wind 17 kt from the South/Southwest with gusts up to 35 kt
Visibility: 4000 m
Scattered clouds at a height of 4500 ft, Cumulonimbus.
thunderstorm, rain

TAF: LEVD 130200Z 1303/1403 VRB05KT CAVOK TX33/1316Z TN16/1305Z PROB30 TEMPO 1310/1315 21017G35KT 4000 TSRA SCT045CB

Weather observations and forecasts of more than 4000 airports (METAR and TAF reports).

The available stations are represented by yellow and red dots on the map.

Hover mouse over dot to see the name of the station.

Then click to see weather observations and forecasts.

To change the map : click on the green buttons with a black cross to zoom in, on the green button with a dash to zoom out, or on the green arrows for adjacent maps.


METAR-TAF: